createdAt,value
2022-10-14T00:01:16.663Z,37.92
2022-10-14T00:06:07.967Z,35.78
2022-10-14T00:13:26.325Z,36.38
2022-10-14T00:15:52.887Z,37.58
2022-10-14T00:18:19.788Z,35.40
2022-10-14T00:20:54.608Z,37.92
2022-10-14T00:23:21.195Z,37.42
2022-10-14T00:28:21.365Z,53.58
2022-10-14T00:30:59.433Z,57.75
2022-10-14T00:33:27.791Z,59.33
2022-10-14T00:35:57.269Z,59.65
2022-10-14T00:38:29.469Z,57.92
2022-10-14T00:43:10.276Z,54.60
2022-10-14T00:45:37.232Z,52.20
2022-10-14T00:50:32.971Z,50.83
2022-10-14T00:53:00.213Z,48.83
2022-10-14T00:55:28.387Z,47.30
2022-10-14T00:57:55.491Z,49.15
2022-10-14T01:00:22.746Z,45.05
2022-10-14T01:02:51.475Z,44.03
2022-10-14T01:07:54.470Z,43.65
2022-10-14T01:10:39.317Z,43.65
2022-10-14T01:13:18.097Z,41.67
2022-10-14T01:15:52.197Z,42.75
2022-10-14T01:18:41.344Z,41.90
2022-10-14T01:21:37.556Z,41.67
2022-10-14T01:24:23.107Z,40.88
2022-10-14T01:26:58.994Z,44.67
2022-10-14T01:29:37.641Z,39.00
2022-10-14T01:32:12.876Z,40.58
2022-10-14T01:35:03.662Z,42.45
2022-10-14T01:37:33.473Z,43.45
2022-10-14T01:40:07.038Z,41.90
2022-10-14T01:42:38.387Z,50.90
2022-10-14T01:45:17.849Z,53.85
2022-10-14T01:49:44.192Z,50.83
2022-10-14T01:52:20.020Z,51.50
2022-10-14T01:54:49.952Z,52.55
2022-10-14T01:57:24.313Z,49.40
2022-10-14T01:59:53.275Z,52.40
2022-10-14T02:02:20.176Z,51.63
2022-10-14T02:04:46.996Z,51.08
2022-10-14T02:07:31.419Z,50.13
2022-10-14T02:12:03.176Z,52.35
2022-10-14T02:14:35.773Z,53.83
2022-10-14T02:19:20.645Z,49.80
2022-10-14T02:21:56.203Z,50.58
2022-10-14T02:26:40.829Z,52.13
2022-10-14T02:29:07.846Z,50.63
2022-10-14T02:31:38.570Z,50.75
2022-10-14T02:34:11.503Z,50.63
2022-10-14T02:36:39.878Z,48.05
2022-10-14T02:41:34.247Z,48.40
2022-10-14T02:48:51.489Z,43.75
2022-10-14T02:51:19.244Z,48.65
2022-10-14T02:53:45.782Z,47.72
2022-10-14T02:56:14.058Z,45.72
2022-10-14T02:58:40.617Z,43.22
2022-10-14T03:01:07.407Z,43.35
2022-10-14T03:03:35.103Z,45.17
2022-10-14T03:06:02.526Z,48.42
2022-10-14T03:08:30.580Z,44.65
2022-10-14T03:10:58.958Z,45.83
2022-10-14T03:13:26.528Z,48.28
2022-10-14T03:15:54.315Z,49.92
2022-10-14T03:18:21.902Z,49.10
2022-10-14T03:20:52.547Z,53.13
2022-10-14T03:23:23.965Z,54.60
2022-10-14T03:25:53.336Z,56.20
2022-10-14T03:28:31.001Z,53.95
2022-10-14T03:31:08.315Z,54.72
2022-10-14T03:34:03.949Z,52.80
2022-10-14T03:36:31.647Z,52.40
2022-10-14T03:38:58.294Z,52.30
2022-10-14T03:41:34.173Z,53.22
2022-10-14T03:44:01.484Z,50.55
2022-10-14T03:48:05.216Z,47.42
2022-10-14T03:50:31.958Z,49.25
2022-10-14T03:52:59.204Z,51.63
2022-10-14T03:55:34.990Z,50.03
2022-10-14T03:58:02.979Z,50.17
2022-10-14T04:00:30.713Z,49.22
2022-10-14T04:03:15.413Z,48.42
2022-10-14T04:05:43.448Z,50.92
2022-10-14T04:10:13.787Z,43.60
2022-10-14T04:12:46.087Z,45.85
2022-10-14T04:17:40.548Z,45.65
2022-10-14T04:20:13.265Z,47.33
2022-10-14T04:22:41.432Z,44.20
2022-10-14T04:25:08.770Z,44.00
2022-10-14T04:27:35.721Z,44.00
2022-10-14T04:30:07.129Z,47.90
2022-10-14T04:32:46.255Z,43.55
2022-10-14T04:35:16.212Z,46.00
2022-10-14T04:39:53.147Z,45.13
2022-10-14T04:42:20.656Z,45.35
2022-10-14T04:47:17.660Z,46.88
2022-10-14T04:49:51.296Z,49.13
2022-10-14T04:52:21.016Z,55.35
2022-10-14T04:55:03.516Z,54.80
2022-10-14T04:57:37.347Z,55.47
2022-10-14T05:00:04.852Z,52.72
2022-10-14T05:02:44.647Z,56.63
2022-10-14T05:05:11.338Z,52.97
2022-10-14T05:07:41.389Z,50.30
2022-10-14T05:10:43.213Z,51.03
2022-10-14T05:13:17.811Z,52.55
2022-10-14T05:16:52.915Z,50.65
2022-10-14T05:19:26.358Z,54.97
2022-10-14T05:21:53.976Z,52.78
2022-10-14T05:24:26.469Z,51.90
2022-10-14T05:26:53.808Z,52.13
2022-10-14T05:29:20.316Z,51.00
2022-10-14T05:31:49.381Z,50.38
2022-10-14T05:34:27.439Z,48.72
2022-10-14T05:36:56.272Z,51.40
2022-10-14T05:39:23.012Z,53.95
2022-10-14T05:41:50.279Z,52.47
2022-10-14T05:46:26.080Z,48.83
2022-10-14T05:48:56.811Z,51.10
2022-10-14T05:53:49.809Z,50.60
2022-10-14T05:56:18.779Z,50.10
2022-10-14T05:58:45.313Z,48.08
2022-10-14T06:01:12.288Z,48.95
2022-10-14T06:03:41.547Z,52.17
2022-10-14T06:06:14.817Z,53.92
2022-10-14T06:08:42.177Z,53.42
2022-10-14T06:11:09.092Z,54.42
2022-10-14T06:13:36.264Z,53.70
2022-10-14T06:16:08.764Z,56.85
2022-10-14T06:18:36.505Z,55.42
2022-10-14T06:23:26.535Z,56.63
2022-10-14T06:25:53.505Z,57.60
2022-10-14T06:30:54.543Z,55.30
2022-10-14T06:33:21.928Z,58.35
2022-10-14T06:35:49.316Z,52.88
2022-10-14T06:38:16.125Z,57.55
2022-10-14T06:40:42.636Z,55.50
2022-10-14T06:43:09.203Z,61.03
2022-10-14T06:45:35.776Z,64.13
2022-10-14T06:48:04.345Z,58.80
2022-10-14T06:50:30.855Z,57.08
2022-10-14T06:52:57.561Z,56.95
2022-10-14T06:55:24.070Z,53.38
2022-10-14T06:57:50.646Z,57.45
2022-10-14T07:00:17.765Z,65.20
2022-10-14T07:02:44.985Z,54.28
2022-10-14T07:05:11.931Z,54.30
2022-10-14T07:07:38.720Z,57.83
2022-10-14T07:10:05.575Z,52.80
2022-10-14T07:12:32.239Z,54.70
2022-10-14T07:15:16.484Z,56.90
2022-10-14T07:17:43.042Z,57.85
2022-10-14T07:20:10.168Z,54.63
2022-10-14T07:22:38.914Z,54.67
2022-10-14T07:25:06.523Z,55.67
2022-10-14T07:27:33.259Z,55.35
2022-10-14T07:30:01.708Z,53.38
2022-10-14T07:32:28.375Z,53.40
2022-10-14T07:34:54.860Z,55.58
2022-10-14T07:37:22.142Z,53.38
2022-10-14T07:39:49.553Z,49.70
2022-10-14T07:42:16.432Z,46.63
2022-10-14T07:44:43.060Z,45.45
2022-10-14T07:47:09.738Z,48.35
2022-10-14T07:49:36.370Z,48.15
2022-10-14T07:52:03.040Z,46.72
2022-10-14T07:54:31.122Z,45.05
2022-10-14T07:57:00.708Z,43.28
2022-10-14T07:59:27.330Z,42.63
2022-10-14T08:01:54.254Z,44.70
2022-10-14T08:04:20.892Z,42.25
2022-10-14T08:06:48.957Z,41.65
2022-10-14T08:09:16.512Z,44.40
2022-10-14T08:11:44.192Z,44.95
2022-10-14T08:14:11.300Z,42.30
2022-10-14T08:16:39.326Z,46.33
2022-10-14T08:19:13.833Z,45.10
2022-10-14T08:21:49.490Z,45.15
2022-10-14T08:24:16.140Z,45.58
2022-10-14T08:26:58.027Z,45.70
2022-10-14T08:29:25.546Z,42.65
2022-10-14T08:31:54.052Z,44.03
2022-10-14T08:34:21.736Z,44.92
2022-10-14T08:36:48.840Z,44.35
2022-10-14T08:39:18.204Z,40.63
2022-10-14T08:42:16.257Z,43.33
2022-10-14T08:44:49.766Z,41.95
2022-10-14T08:47:23.707Z,41.85
2022-10-14T08:50:20.836Z,41.75
2022-10-14T08:53:00.441Z,40.35
2022-10-14T08:55:33.832Z,43.70
2022-10-14T08:58:10.540Z,42.47
2022-10-14T09:00:41.304Z,42.58
2022-10-14T09:03:33.340Z,44.00
2022-10-14T09:06:02.161Z,37.78
2022-10-14T09:08:38.011Z,40.00
2022-10-14T09:11:10.095Z,39.15
2022-10-14T09:13:41.277Z,39.63
2022-10-14T09:16:36.172Z,42.10
2022-10-14T09:19:28.835Z,37.40
2022-10-14T09:21:56.108Z,35.83
2022-10-14T09:24:35.450Z,30.20
2022-10-14T09:27:14.321Z,34.53
2022-10-14T09:29:43.735Z,32.03
2022-10-14T09:32:18.911Z,30.08
2022-10-14T09:34:51.626Z,29.95
2022-10-14T09:37:27.009Z,25.73
2022-10-14T09:39:59.059Z,19.50
2022-10-14T09:42:56.765Z,19.83
2022-10-14T09:45:26.059Z,22.23
2022-10-14T09:47:57.296Z,20.48
2022-10-14T09:50:23.929Z,19.10
2022-10-14T09:52:59.565Z,21.15
2022-10-14T09:55:26.237Z,23.58
2022-10-14T09:58:17.017Z,21.00
2022-10-14T10:00:46.057Z,20.85
2022-10-14T10:03:33.510Z,21.50
2022-10-14T10:06:09.652Z,22.15
2022-10-14T10:08:54.104Z,20.65
2022-10-14T10:11:37.980Z,21.90
2022-10-14T10:14:20.984Z,24.00
2022-10-14T10:16:48.573Z,21.35
2022-10-14T10:19:36.368Z,24.33
2022-10-14T10:25:01.286Z,23.80
2022-10-14T10:27:33.713Z,25.42
2022-10-14T10:30:14.440Z,22.77
2022-10-14T10:35:17.806Z,22.15
2022-10-14T10:37:56.793Z,22.45
2022-10-14T10:40:30.160Z,22.35
2022-10-14T10:43:31.744Z,21.60
2022-10-14T10:46:19.971Z,23.57
2022-10-14T10:49:10.272Z,22.95
2022-10-14T10:51:54.368Z,21.67
2022-10-14T10:54:31.321Z,21.98
2022-10-14T10:57:45.984Z,19.13
2022-10-14T11:00:16.499Z,20.95
2022-10-14T11:03:11.108Z,20.48
2022-10-14T11:05:51.764Z,20.10
2022-10-14T11:09:11.372Z,20.73
2022-10-14T11:12:02.726Z,23.45
2022-10-14T11:14:38.312Z,20.30
2022-10-14T11:17:07.730Z,19.15
2022-10-14T11:20:02.801Z,19.92
2022-10-14T11:23:04.631Z,20.25
2022-10-14T11:25:49.831Z,19.95
2022-10-14T11:28:45.899Z,20.13
2022-10-14T11:31:36.429Z,20.92
2022-10-14T11:34:24.285Z,19.45
2022-10-14T11:37:17.361Z,19.45
2022-10-14T11:39:50.089Z,20.83
2022-10-14T11:42:35.432Z,19.65
2022-10-14T11:45:21.359Z,20.08
2022-10-14T11:48:08.117Z,20.23
2022-10-14T11:50:44.335Z,21.10
2022-10-14T11:53:20.392Z,19.60
2022-10-14T11:55:56.055Z,18.98
2022-10-14T11:58:27.007Z,19.10
2022-10-14T12:00:56.057Z,20.83
2022-10-14T12:04:02.856Z,21.00
2022-10-14T12:06:41.865Z,20.98
2022-10-14T12:09:27.494Z,19.38
2022-10-14T12:12:15.344Z,20.42
2022-10-14T12:14:52.361Z,20.38
2022-10-14T12:17:26.150Z,20.42
2022-10-14T12:22:27.856Z,19.58
2022-10-14T12:24:58.901Z,21.05
2022-10-14T12:27:28.453Z,20.90
2022-10-14T12:29:58.491Z,21.98
2022-10-14T12:32:26.872Z,21.17
2022-10-14T12:34:55.903Z,21.15
2022-10-14T12:37:35.212Z,19.30
2022-10-14T12:40:02.277Z,20.25
2022-10-14T12:42:30.636Z,20.63
2022-10-14T12:45:01.202Z,21.60
2022-10-14T12:47:35.179Z,20.70
2022-10-14T12:50:06.164Z,20.90
2022-10-14T12:52:38.567Z,21.43
2022-10-14T12:57:28.642Z,20.85
2022-10-14T12:59:59.457Z,20.33
2022-10-14T13:02:35.812Z,20.83
2022-10-14T13:05:07.198Z,21.63
2022-10-14T13:07:47.343Z,20.23
2022-10-14T13:10:43.461Z,21.70
2022-10-14T13:13:47.717Z,20.60
2022-10-14T13:16:26.168Z,22.73
2022-10-14T13:18:55.788Z,19.85
2022-10-14T13:21:42.539Z,20.30
2022-10-14T13:24:17.948Z,23.15
2022-10-14T13:27:15.020Z,22.27
2022-10-14T13:30:05.637Z,21.77
2022-10-14T13:32:42.307Z,20.50
2022-10-14T13:35:30.021Z,21.92
2022-10-14T13:38:18.882Z,21.20
2022-10-14T13:40:56.532Z,23.20
2022-10-14T13:43:28.635Z,22.13
2022-10-14T13:46:07.066Z,22.45
2022-10-14T13:48:39.210Z,21.83
2022-10-14T13:51:24.478Z,23.70
2022-10-14T13:54:19.841Z,22.48
2022-10-14T13:57:12.628Z,24.45
2022-10-14T14:00:11.642Z,24.77
2022-10-14T14:02:39.969Z,24.08
2022-10-14T14:05:13.897Z,25.40
2022-10-14T14:10:30.378Z,26.45
2022-10-14T14:12:58.253Z,23.05
2022-10-14T14:15:28.848Z,24.67
2022-10-14T14:17:55.719Z,22.10
2022-10-14T14:20:25.037Z,23.60
2022-10-14T14:22:53.614Z,25.08
2022-10-14T14:25:46.492Z,24.15
2022-10-14T14:28:18.671Z,25.00
2022-10-14T14:30:55.755Z,25.20
2022-10-14T14:33:32.083Z,24.48
2022-10-14T14:36:01.668Z,24.92
2022-10-14T14:38:34.593Z,25.58
2022-10-14T14:41:02.447Z,25.20
2022-10-14T14:43:31.721Z,24.98
2022-10-14T14:46:03.826Z,23.63
2022-10-14T14:48:34.446Z,26.13
2022-10-14T14:51:01.636Z,27.33
2022-10-14T14:54:02.164Z,25.27
2022-10-14T14:56:33.382Z,26.67
2022-10-14T14:59:16.224Z,24.00
2022-10-14T15:01:43.404Z,25.20
2022-10-14T15:04:18.929Z,26.67
2022-10-14T15:06:56.420Z,25.50
2022-10-14T15:09:35.798Z,25.92
2022-10-14T15:12:06.650Z,25.42
2022-10-14T15:14:45.956Z,27.20
2022-10-14T15:17:34.385Z,25.45
2022-10-14T15:20:31.098Z,27.10
2022-10-14T15:22:57.747Z,29.23
2022-10-14T15:25:31.087Z,40.85
2022-10-14T15:27:59.840Z,33.60
2022-10-14T15:31:05.714Z,28.42
2022-10-14T15:33:32.681Z,29.55
2022-10-14T15:36:01.806Z,26.92
2022-10-14T15:38:29.430Z,28.98
2022-10-14T15:40:56.285Z,27.52
2022-10-14T15:43:25.210Z,27.58
2022-10-14T15:48:47.485Z,26.63
2022-10-14T15:51:17.925Z,27.90
2022-10-14T15:53:44.421Z,27.90
2022-10-14T15:56:11.241Z,30.48
2022-10-14T16:00:43.423Z,27.08
2022-10-14T16:03:10.436Z,27.42
2022-10-14T16:05:38.489Z,31.52
2022-10-14T16:08:14.015Z,31.15
2022-10-14T16:10:43.773Z,30.48
2022-10-14T16:13:12.487Z,34.92
2022-10-14T16:15:53.380Z,61.28
2022-10-14T16:18:22.376Z,77.35
2022-10-14T16:20:51.600Z,46.70
2022-10-14T16:23:28.175Z,52.47
2022-10-14T16:25:58.213Z,108.00
2022-10-14T16:28:24.719Z,123.45
2022-10-14T16:30:51.326Z,59.55
2022-10-14T16:33:19.623Z,38.05
2022-10-14T16:35:53.674Z,36.90
2022-10-14T16:38:20.513Z,35.28
2022-10-14T16:40:58.820Z,36.53
2022-10-14T16:43:26.278Z,40.78
2022-10-14T16:45:53.320Z,41.47
2022-10-14T16:48:20.073Z,159.40
2022-10-14T16:50:50.524Z,182.85
2022-10-14T16:53:36.289Z,96.80
2022-10-14T16:56:03.795Z,41.58
2022-10-14T16:58:30.640Z,37.97
2022-10-14T17:00:57.249Z,37.85
2022-10-14T17:03:23.732Z,37.10
2022-10-14T17:05:58.928Z,42.55
2022-10-14T17:08:25.499Z,51.30
2022-10-14T17:10:57.999Z,66.97
2022-10-14T17:14:37.280Z,52.42
2022-10-14T17:17:04.481Z,70.57
2022-10-14T17:19:31.191Z,74.38
2022-10-14T17:21:58.620Z,178.77
2022-10-14T17:24:25.963Z,99.75
2022-10-14T17:29:24.279Z,507.45
2022-10-14T17:31:58.000Z,334.67
2022-10-14T17:34:24.809Z,293.67
2022-10-14T17:36:53.259Z,309.95
2022-10-14T17:39:25.854Z,342.70
2022-10-14T17:41:56.314Z,403.23
2022-10-14T17:46:47.434Z,316.45
2022-10-14T17:51:39.231Z,322.40
2022-10-14T17:54:09.913Z,386.42
2022-10-14T17:56:37.400Z,320.15
2022-10-14T17:59:07.416Z,75.75
2022-10-14T18:02:02.046Z,63.35
2022-10-14T18:04:22.222Z,62.30
2022-10-14T18:06:48.799Z,63.20
2022-10-14T18:09:15.369Z,107.72
2022-10-14T18:14:30.161Z,176.32
2022-10-14T18:16:56.734Z,143.40
2022-10-14T18:19:23.282Z,127.60
2022-10-14T18:21:51.524Z,109.53
2022-10-14T18:24:20.902Z,143.38
2022-10-14T18:26:52.380Z,109.53
2022-10-14T18:29:18.982Z,101.47
2022-10-14T18:31:45.604Z,119.13
2022-10-14T18:34:12.317Z,378.70
2022-10-14T18:36:38.959Z,359.58
2022-10-14T18:39:09.074Z,525.53
2022-10-14T18:41:37.112Z,316.58
2022-10-14T18:44:05.127Z,179.90
2022-10-14T18:46:34.681Z,61.63
2022-10-14T18:49:02.865Z,75.30
2022-10-14T18:51:34.609Z,68.88
2022-10-14T18:54:05.274Z,74.13
2022-10-14T18:56:35.029Z,92.35
2022-10-14T18:59:07.069Z,142.25
2022-10-14T19:01:37.163Z,138.13
2022-10-14T19:04:05.962Z,132.23
2022-10-14T19:06:36.173Z,596.75
2022-10-14T19:09:04.302Z,463.75
2022-10-14T19:11:33.303Z,319.13
2022-10-14T19:14:03.607Z,196.75
2022-10-14T19:16:32.476Z,126.85
2022-10-14T19:19:07.823Z,200.65
2022-10-14T19:21:35.031Z,112.35
2022-10-14T19:24:02.494Z,65.05
2022-10-14T19:26:32.268Z,57.28
2022-10-14T19:29:04.289Z,69.18
2022-10-14T19:35:12.867Z,96.05
2022-10-14T19:37:42.082Z,95.22
2022-10-14T19:40:13.885Z,89.03
2022-10-14T19:42:40.545Z,86.80
2022-10-14T19:45:11.988Z,108.53
2022-10-14T19:47:38.920Z,358.55
2022-10-14T19:50:06.226Z,195.68
2022-10-14T19:52:32.778Z,256.33
2022-10-14T19:54:59.339Z,110.72
2022-10-14T19:57:28.074Z,100.88
2022-10-14T19:59:54.631Z,99.85
2022-10-14T20:02:21.385Z,229.48
2022-10-14T20:04:47.981Z,161.68
2022-10-14T20:07:14.971Z,101.20
2022-10-14T20:09:43.003Z,87.78
2022-10-14T20:14:30.370Z,94.85
2022-10-14T20:16:59.325Z,93.38
2022-10-14T20:19:25.840Z,93.90
2022-10-14T20:21:52.394Z,92.32
2022-10-14T20:24:27.765Z,104.80
2022-10-14T20:26:57.600Z,95.78
2022-10-14T20:29:24.322Z,91.93
2022-10-14T20:31:50.993Z,88.38
2022-10-14T20:34:17.608Z,85.25
2022-10-14T20:36:44.208Z,80.18
2022-10-14T20:39:17.485Z,84.05
2022-10-14T20:41:45.144Z,91.63
2022-10-14T20:44:11.702Z,93.35
2022-10-14T20:46:38.224Z,93.38
2022-10-14T20:49:04.825Z,91.18
2022-10-14T20:51:34.466Z,93.13
2022-10-14T20:54:04.189Z,86.43
2022-10-14T20:56:34.407Z,86.22
2022-10-14T20:59:04.236Z,90.90
2022-10-14T21:01:31.860Z,87.53
2022-10-14T21:04:02.069Z,97.68
2022-10-14T21:06:29.567Z,95.82
2022-10-14T21:08:57.146Z,92.40
2022-10-14T21:11:24.948Z,90.50
2022-10-14T21:14:00.549Z,97.78
2022-10-14T21:16:30.008Z,102.57
2022-10-14T21:18:59.376Z,96.18
2022-10-14T21:21:28.442Z,100.93
2022-10-14T21:23:55.615Z,111.85
2022-10-14T21:26:22.926Z,116.45
2022-10-14T21:28:49.718Z,108.13
2022-10-14T21:31:19.204Z,94.72
2022-10-14T21:33:47.646Z,92.45
2022-10-14T21:36:16.036Z,88.75
2022-10-14T21:38:42.796Z,95.60
2022-10-14T21:41:09.701Z,89.53
2022-10-14T21:43:38.294Z,93.18
2022-10-14T21:48:17.975Z,91.18
2022-10-14T21:50:44.548Z,97.35
2022-10-14T21:53:12.565Z,92.18
2022-10-14T21:55:41.941Z,94.43
2022-10-14T21:58:08.451Z,94.90
2022-10-14T22:00:35.181Z,92.15
2022-10-14T22:03:01.776Z,102.13
2022-10-14T22:05:28.534Z,94.72
2022-10-14T22:07:55.623Z,84.45
2022-10-14T22:10:40.959Z,85.80
2022-10-14T22:13:08.031Z,83.55
2022-10-14T22:15:35.602Z,81.00
2022-10-14T22:18:03.076Z,83.90
2022-10-14T22:20:29.653Z,84.82
2022-10-14T22:22:58.807Z,85.93
2022-10-14T22:25:26.036Z,83.65
2022-10-14T22:27:52.644Z,84.22
2022-10-14T22:30:19.285Z,87.65
2022-10-14T22:32:45.849Z,86.10
2022-10-14T22:35:12.372Z,90.50
2022-10-14T22:37:40.303Z,93.15
2022-10-14T22:40:07.421Z,90.90
2022-10-14T22:42:35.184Z,97.82
2022-10-14T22:45:03.865Z,104.72
2022-10-14T22:47:30.646Z,89.50
2022-10-14T22:49:57.128Z,90.30
2022-10-14T22:52:24.014Z,80.40
2022-10-14T22:54:50.793Z,99.55
2022-10-14T22:57:17.334Z,89.88
2022-10-14T23:02:14.008Z,104.45
2022-10-14T23:04:40.662Z,84.30
2022-10-14T23:07:08.991Z,90.03
2022-10-14T23:12:07.294Z,72.35
2022-10-14T23:14:33.853Z,69.45
2022-10-14T23:17:00.470Z,68.57
2022-10-14T23:19:26.953Z,66.90
2022-10-14T23:21:53.628Z,65.10
2022-10-14T23:24:20.180Z,65.03
2022-10-14T23:26:46.799Z,51.55
2022-10-14T23:29:13.373Z,55.75
2022-10-14T23:31:40.931Z,55.28
2022-10-14T23:34:11.655Z,52.45
2022-10-14T23:39:11.332Z,51.10
2022-10-14T23:41:38.505Z,47.05
2022-10-14T23:44:05.030Z,49.67
2022-10-14T23:46:31.618Z,395.88
2022-10-14T23:49:07.418Z,266.48
2022-10-14T23:51:40.960Z,219.27
2022-10-14T23:54:07.744Z,325.55
2022-10-14T23:58:47.631Z,887.35
